Time;durP1;ratioP1;P1;durP2;ratioP2;P2;SDS_P1;SDS_P2;PMS_P1;PMS_P2;Temp;Humidity;BMP_temperature;BMP_pressure;BME280_temperature;BME280_humidity;BME280_pressure;Samples;Min_cycle;Max_cycle;Signal;HPM_P1;HPM_P2
2020/12/10 00:01:32;;;;;;;86.82;56.47;;;;;;;8.13;65.71;100775.75;5054545;28;20138;-77
2020/12/10 00:03:57;;;;;;;81.78;56.50;;;;;;;8.06;65.95;100775.66;5059466;28;20062;-77
2020/12/10 00:06:23;;;;;;;77.78;54.40;;;;;;;8.01;66.24;100761.78;5074831;28;20102;-75
2020/12/10 00:08:48;;;;;;;78.45;49.83;;;;;;;7.80;66.49;100765.19;5060103;28;20033;-76
2020/12/10 00:11:14;;;;;;;79.13;52.50;;;;;;;8.07;65.98;100762.94;5062167;28;20025;-76
2020/12/10 00:13:39;;;;;;;79.13;50.08;;;;;;;8.10;65.89;100764.47;5078114;28;20039;-77
2020/12/10 00:16:05;;;;;;;73.82;49.97;;;;;;;7.90;66.09;100759.53;5056470;28;20028;-77
2020/12/10 00:18:30;;;;;;;78.70;51.30;;;;;;;7.53;67.40;100756.56;5077186;28;20074;-77
2020/12/10 00:20:55;;;;;;;72.88;50.03;;;;;;;7.82;66.64;100751.47;5045056;28;20029;-76
2020/12/10 00:23:21;;;;;;;78.80;53.25;;;;;;;8.07;66.15;100749.41;5073783;28;20049;-76
2020/12/10 00:25:46;;;;;;;80.05;51.17;;;;;;;7.96;66.47;100752.56;5056599;28;20048;-77
2020/12/10 00:28:11;;;;;;;80.13;56.00;;;;;;;8.09;65.81;100760.88;5059328;28;20036;-75
2020/12/10 00:30:37;;;;;;;79.63;51.13;;;;;;;8.07;66.06;100761.06;5050457;28;20090;-76
2020/12/10 00:33:02;;;;;;;79.28;58.67;;;;;;;8.14;65.89;100754.91;5061925;28;20423;-77
2020/12/10 00:35:28;;;;;;;78.03;50.08;;;;;;;8.24;65.56;100742.81;5060206;28;20067;-76
2020/12/10 00:37:53;;;;;;;75.47;52.30;;;;;;;8.15;65.81;100745.78;5061183;28;20382;-77
2020/12/10 00:40:19;;;;;;;74.70;52.25;;;;;;;8.23;65.75;100746.56;5059826;28;20072;-77
2020/12/10 00:42:44;;;;;;;80.32;55.05;;;;;;;8.16;65.85;100759.16;5077635;28;20485;-77
2020/12/10 00:45:10;;;;;;;78.43;51.53;;;;;;;8.03;65.96;100753.50;5057039;28;20021;-76
2020/12/10 00:47:35;;;;;;;72.78;49.58;;;;;;;8.15;65.87;100743.91;5059815;28;20094;-76
2020/12/10 00:50:01;;;;;;;78.90;48.55;;;;;;;8.06;66.03;100755.84;5052574;28;20051;-76
2020/12/10 00:52:27;;;;;;;71.97;48.75;;;;;;;7.91;66.27;100752.22;5062237;28;20030;-76
2020/12/10 00:54:52;;;;;;;72.68;49.03;;;;;;;8.03;65.71;100737.25;5058771;28;20218;-75
2020/12/10 00:57:17;;;;;;;72.45;51.80;;;;;;;8.12;65.90;100746.97;5059011;28;20028;-76
2020/12/10 00:59:43;;;;;;;71.47;49.83;;;;;;;8.13;65.85;100739.72;5060864;28;20391;-77
2020/12/10 01:02:08;;;;;;;78.28;53.78;;;;;;;8.12;65.42;100736.16;5063137;28;20033;-76
2020/12/10 01:04:35;;;;;;;72.75;48.72;;;;;;;8.09;65.75;100731.09;5060777;28;20039;-77
2020/12/10 01:07:01;;;;;;;73.63;50.70;;;;;;;8.10;65.90;100734.66;5060590;28;20036;-77
2020/12/10 01:09:26;;;;;;;72.40;50.20;;;;;;;8.02;65.79;100732.88;5062650;28;20060;-76
2020/12/10 01:11:52;;;;;;;69.10;47.38;;;;;;;8.06;65.65;100736.88;5063883;28;20048;-76
2020/12/10 01:14:18;;;;;;;71.80;53.80;;;;;;;7.97;65.91;100737.97;5061067;28;20495;-77
2020/12/10 01:16:45;;;;;;;68.80;48.75;;;;;;;7.66;66.37;100745.16;5066153;28;20635;-76
2020/12/10 01:19:10;;;;;;;72.63;52.55;;;;;;;8.03;65.68;100735.41;5065060;28;20033;-77
2020/12/10 01:21:36;;;;;;;69.50;48.25;;;;;;;8.09;65.55;100735.69;5063365;28;20345;-77
2020/12/10 01:24:03;;;;;;;67.53;47.78;;;;;;;8.16;65.33;100736.66;5066199;28;20089;-77
2020/12/10 01:26:30;;;;;;;71.97;49.10;;;;;;;7.86;66.24;100747.38;5064506;28;20169;-76
2020/12/10 01:28:56;;;;;;;61.05;43.30;;;;;;;8.16;65.36;100745.59;5066536;28;20033;-76
2020/12/10 01:31:22;;;;;;;66.95;42.60;;;;;;;8.16;65.23;100742.88;5067914;28;20059;-77
2020/12/10 01:33:47;;;;;;;64.85;44.90;;;;;;;8.19;65.23;100741.69;5064673;28;20060;-77
2020/12/10 01:36:26;;;;;;;63.10;43.15;;;;;;;8.17;65.39;100736.47;5064385;28;20041;-77
2020/12/10 01:38:52;;;;;;;62.45;42.63;;;;;;;8.18;65.23;100746.25;5064916;28;20222;-77
2020/12/10 01:41:18;;;;;;;68.53;43.50;;;;;;;8.15;65.24;100733.06;5066318;28;20025;-77
2020/12/10 01:43:44;;;;;;;66.50;45.88;;;;;;;8.17;65.19;100735.59;5066590;28;20040;-77
2020/12/10 01:46:10;;;;;;;74.55;53.03;;;;;;;8.17;65.00;100720.22;5065934;28;20428;-76
2020/12/10 01:48:36;;;;;;;65.20;45.65;;;;;;;8.14;65.02;100727.84;5066966;28;20083;-77
2020/12/10 01:51:02;;;;;;;68.20;46.92;;;;;;;8.03;65.20;100721.84;5072824;28;20432;-77
2020/12/10 01:53:28;;;;;;;60.25;40.03;;;;;;;7.97;65.34;100725.28;5065452;28;20115;-76
2020/12/10 01:55:54;;;;;;;62.15;41.60;;;;;;;8.01;65.23;100718.47;5061567;28;20121;-77
2020/12/10 01:58:19;;;;;;;62.95;40.47;;;;;;;8.02;65.38;100717.44;5048959;28;20094;-77
2020/12/10 02:00:45;;;;;;;64.68;44.47;;;;;;;8.02;65.37;100720.16;5060148;28;20241;-77
2020/12/10 02:03:10;;;;;;;60.08;41.05;;;;;;;8.05;65.13;100713.53;5067663;28;20085;-77
2020/12/10 02:05:46;;;;;;;73.38;44.25;;;;;;;8.02;65.14;100703.09;5068129;28;20430;-76
2020/12/10 02:08:12;;;;;;;66.68;43.90;;;;;;;7.99;65.29;100701.56;5065321;28;20028;-77
2020/12/10 02:10:38;;;;;;;60.08;41.00;;;;;;;7.83;65.53;100696.28;5068770;28;20536;-77
2020/12/10 02:13:04;;;;;;;60.05;40.90;;;;;;;8.09;65.10;100689.63;5066879;28;20025;-77
2020/12/10 02:15:33;;;;;;;63.78;41.72;;;;;;;8.14;64.79;100688.06;5058397;28;20051;-76
2020/12/10 02:17:59;;;;;;;62.42;42.38;;;;;;;8.10;64.71;100692.16;5062892;28;20479;-77
2020/12/10 02:20:24;;;;;;;68.30;44.85;;;;;;;7.83;65.37;100682.75;5065161;28;20036;-77
2020/12/10 02:22:57;;;;;;;64.00;41.58;;;;;;;8.00;64.98;100687.00;5060630;28;20029;-76
2020/12/10 02:25:22;;;;;;;68.35;50.10;;;;;;;8.02;65.17;100687.66;5067068;28;20032;-77
2020/12/10 02:27:48;;;;;;;62.47;41.88;;;;;;;8.02;64.87;100687.66;5064959;28;20028;-77
2020/12/10 02:30:13;;;;;;;60.92;40.67;;;;;;;7.69;65.89;100682.53;5065146;28;20486;-76
2020/12/10 02:32:39;;;;;;;58.47;40.05;;;;;;;8.06;65.18;100690.84;5067194;28;20033;-77
2020/12/10 02:35:04;;;;;;;62.45;43.90;;;;;;;7.86;65.34;100685.94;5066341;28;20053;-76
2020/12/10 02:37:30;;;;;;;65.85;44.30;;;;;;;7.98;65.33;100686.34;5057810;28;20036;-77
2020/12/10 02:39:55;;;;;;;59.47;43.03;;;;;;;7.83;65.74;100686.31;5065043;28;20032;-77
2020/12/10 02:42:22;;;;;;;66.60;47.22;;;;;;;7.97;65.31;100691.94;5065549;28;20045;-77
2020/12/10 02:44:47;;;;;;;60.78;42.67;;;;;;;7.97;65.47;100681.97;5060983;28;20383;-77
2020/12/10 02:47:13;;;;;;;59.13;39.92;;;;;;;8.05;64.97;100675.63;5055734;28;20033;-77
2020/12/10 02:49:38;;;;;;;51.95;39.28;;;;;;;8.05;64.98;100675.63;5063242;28;20054;-78
2020/12/10 02:52:03;;;;;;;59.47;39.42;;;;;;;7.89;65.32;100671.19;5077345;28;20037;-77
2020/12/10 02:54:29;;;;;;;58.33;42.25;;;;;;;7.86;65.57;100675.13;5041271;28;20032;-77
2020/12/10 02:56:54;;;;;;;58.35;42.47;;;;;;;7.75;65.82;100678.25;5062032;28;20490;-77
2020/12/10 02:59:20;;;;;;;60.83;50.40;;;;;;;7.91;65.23;100680.00;5062057;28;20443;-78
2020/12/10 03:01:45;;;;;;;56.80;41.97;;;;;;;7.86;65.38;100685.09;5057999;28;20102;-76
2020/12/10 03:04:10;;;;;;;60.22;44.88;;;;;;;7.76;65.60;100679.09;5065719;28;20486;-76
2020/12/10 03:06:36;;;;;;;58.90;44.85;;;;;;;7.89;65.28;100676.59;5062111;28;20081;-77
2020/12/10 03:09:01;;;;;;;52.10;37.10;;;;;;;7.78;65.54;100680.59;5062537;28;20033;-77
2020/12/10 03:11:27;;;;;;;53.42;41.25;;;;;;;7.88;65.11;100670.34;5062183;28;20037;-77
2020/12/10 03:13:52;;;;;;;57.50;43.40;;;;;;;7.90;65.38;100670.19;5040377;28;20556;-77
2020/12/10 03:16:17;;;;;;;59.60;47.60;;;;;;;7.78;65.08;100669.75;5059516;28;20036;-76
2020/12/10 03:18:43;;;;;;;53.42;43.03;;;;;;;7.65;65.63;100669.56;5059048;28;20032;-76
2020/12/10 03:21:08;;;;;;;48.78;36.53;;;;;;;7.74;65.41;100667.59;5061024;28;20484;-78
2020/12/10 03:23:34;;;;;;;51.97;38.65;;;;;;;7.74;65.49;100660.34;5061078;28;20507;-78
2020/12/10 03:26:00;;;;;;;51.67;36.83;;;;;;;7.66;65.48;100661.25;5060233;28;20391;-78
2020/12/10 03:28:26;;;;;;;49.90;39.80;;;;;;;7.67;65.34;100660.19;5061466;28;20148;-77
2020/12/10 03:30:51;;;;;;;46.92;37.88;;;;;;;7.68;65.24;100667.31;5080196;28;20024;-77
2020/12/10 03:33:17;;;;;;;51.33;40.38;;;;;;;7.79;64.66;100655.22;5059174;28;20029;-77
2020/12/10 03:35:42;;;;;;;49.15;40.15;;;;;;;7.89;64.81;100650.38;5062096;28;20119;-78
2020/12/10 03:38:07;;;;;;;45.78;34.03;;;;;;;7.86;64.76;100658.00;5061368;28;20558;-77
2020/12/10 03:40:33;;;;;;;50.95;40.28;;;;;;;7.64;65.09;100647.03;5062678;28;20025;-77
2020/12/10 03:42:58;;;;;;;49.67;40.95;;;;;;;7.68;64.79;100648.38;5061512;28;20487;-76
2020/12/10 03:45:24;;;;;;;45.50;33.88;;;;;;;7.83;64.58;100637.59;5061099;28;20631;-77
2020/12/10 03:47:49;;;;;;;44.75;35.45;;;;;;;7.78;64.63;100639.16;5063120;28;20048;-77
2020/12/10 03:50:15;;;;;;;51.97;45.47;;;;;;;7.79;64.51;100638.13;5060715;28;20066;-77
2020/12/10 03:52:40;;;;;;;46.65;35.95;;;;;;;7.73;64.59;100642.41;5079387;28;20036;-77
2020/12/10 03:55:05;;;;;;;43.67;36.80;;;;;;;7.69;64.62;100641.06;5057933;28;20024;-76
2020/12/10 03:57:31;;;;;;;41.47;33.17;;;;;;;7.69;64.52;100638.38;5063323;28;20562;-76
2020/12/10 03:59:56;;;;;;;39.65;32.58;;;;;;;7.60;64.60;100640.31;5058344;28;20024;-76
2020/12/10 04:02:22;;;;;;;42.55;34.65;;;;;;;7.51;64.59;100636.84;5060718;28;20040;-79
2020/12/10 04:04:49;;;;;;;40.53;34.95;;;;;;;7.63;64.11;100633.69;5058508;28;20037;-76
2020/12/10 04:07:14;;;;;;;41.47;32.88;;;;;;;7.54;64.68;100643.75;5060997;28;20501;-75
2020/12/10 04:09:40;;;;;;;42.63;32.42;;;;;;;7.52;64.62;100635.81;5061153;28;20051;-76
2020/12/10 04:12:05;;;;;;;38.88;30.95;;;;;;;7.55;64.94;100629.19;5059318;28;20024;-79
2020/12/10 04:14:31;;;;;;;40.90;29.98;;;;;;;7.45;64.79;100634.84;5057173;28;20047;-77
2020/12/10 04:16:57;;;;;;;40.17;30.80;;;;;;;7.57;64.79;100639.81;5060196;28;20020;-78
2020/12/10 04:19:22;;;;;;;39.42;30.92;;;;;;;7.56;64.65;100638.16;5063356;28;20081;-76
2020/12/10 04:21:48;;;;;;;40.85;28.65;;;;;;;7.55;64.44;100633.75;5057143;28;20123;-76
2020/12/10 04:24:14;;;;;;;38.65;27.30;;;;;;;7.57;64.27;100639.81;5077622;28;20398;-76
2020/12/10 04:26:39;;;;;;;33.00;25.02;;;;;;;7.51;64.45;100639.53;5060229;28;20037;-78
2020/12/10 04:29:04;;;;;;;31.88;25.02;;;;;;;7.45;64.36;100632.16;5061217;28;20032;-76
2020/12/10 04:31:30;;;;;;;36.15;24.48;;;;;;;7.42;64.54;100637.91;5058115;28;20037;-76
2020/12/10 04:33:55;;;;;;;35.40;26.27;;;;;;;7.40;64.63;100644.53;5059010;28;20048;-75
2020/12/10 04:36:20;;;;;;;40.97;27.85;;;;;;;7.44;64.67;100649.41;5058686;28;20059;-78
2020/12/10 04:38:46;;;;;;;35.72;25.27;;;;;;;7.47;64.51;100643.63;5061562;28;20514;-75
2020/12/10 04:41:11;;;;;;;34.50;25.83;;;;;;;7.39;64.68;100638.28;5061238;28;20028;-75
2020/12/10 04:43:37;;;;;;;37.63;27.40;;;;;;;7.39;64.73;100643.69;5060831;28;20130;-77
2020/12/10 04:46:05;;;;;;;40.47;27.90;;;;;;;7.22;65.44;100644.84;5061500;28;20040;-78
2020/12/10 04:48:35;;;;;;;39.67;31.70;;;;;;;7.26;65.32;100644.31;5051814;28;20048;-76
2020/12/10 04:51:06;;;;;;;42.88;29.95;;;;;;;7.37;65.04;100643.03;5061856;28;20029;-76
2020/12/10 04:53:32;;;;;;;42.05;31.95;;;;;;;7.36;65.19;100638.66;5061089;28;20112;-77
2020/12/10 04:56:07;;;;;;;41.00;30.23;;;;;;;7.53;65.01;100644.78;5064491;28;20028;-77
2020/12/10 04:58:33;;;;;;;41.88;31.20;;;;;;;7.44;64.92;100638.56;5060955;28;20045;-76
2020/12/10 05:01:00;;;;;;;42.33;31.42;;;;;;;7.32;65.11;100651.69;5063425;28;20803;-77
2020/12/10 05:03:26;;;;;;;41.13;32.55;;;;;;;7.48;64.53;100648.03;5058676;28;20538;-76
2020/12/10 05:05:51;;;;;;;43.03;31.80;;;;;;;7.47;64.78;100651.75;5058838;28;20115;-76
2020/12/10 05:08:30;;;;;;;47.67;36.63;;;;;;;7.58;64.21;100657.75;5064353;28;20024;-76
2020/12/10 05:10:56;;;;;;;46.00;32.72;;;;;;;7.32;64.44;100662.53;5066125;28;20474;-75
2020/12/10 05:13:22;;;;;;;51.20;36.20;;;;;;;7.27;64.72;100659.50;5063556;28;20131;-76
2020/12/10 05:15:47;;;;;;;39.25;27.98;;;;;;;7.17;64.80;100667.84;5056373;28;20055;-76
2020/12/10 05:18:15;;;;;;;42.63;32.85;;;;;;;7.37;64.39;100667.38;5063773;28;20394;-76
2020/12/10 05:20:46;;;;;;;43.88;32.70;;;;;;;7.33;64.21;100671.47;5062897;28;20890;-77
2020/12/10 05:23:14;;;;;;;41.45;32.83;;;;;;;7.47;64.00;100667.16;5063794;28;20536;-77
2020/12/10 05:25:52;;;;;;;43.17;35.45;;;;;;;7.49;63.73;100671.34;5060971;28;20025;-77
2020/12/10 05:28:19;;;;;;;48.03;36.78;;;;;;;7.47;64.01;100677.97;5064550;28;20036;-77
2020/12/10 05:31:00;;;;;;;46.45;35.35;;;;;;;7.47;63.92;100681.50;5060166;28;20024;-76
2020/12/10 05:33:26;;;;;;;48.13;34.20;;;;;;;7.38;64.30;100674.47;5057648;28;20058;-78
2020/12/10 05:36:06;;;;;;;54.63;39.00;;;;;;;7.12;64.72;100674.78;5060780;28;20453;-76
2020/12/10 05:38:32;;;;;;;52.92;37.17;;;;;;;7.38;64.34;100679.03;5065100;28;20498;-76
2020/12/10 05:41:20;;;;;;;53.33;36.90;;;;;;;7.30;64.67;100678.06;5060800;28;20361;-77
2020/12/10 05:43:47;;;;;;;50.65;36.70;;;;;;;7.22;64.69;100683.53;5066197;28;20028;-76
2020/12/10 05:46:15;;;;;;;55.00;36.00;;;;;;;7.15;64.89;100679.84;5059280;28;20143;-77
2020/12/10 05:48:42;;;;;;;56.80;41.03;;;;;;;7.25;64.54;100680.47;5066197;28;20032;-77
2020/12/10 05:51:16;;;;;;;54.78;39.58;;;;;;;7.34;64.31;100684.81;5062134;28;20033;-77
2020/12/10 05:53:42;;;;;;;59.70;45.28;;;;;;;7.38;64.22;100684.44;5057704;28;20039;-76
2020/12/10 05:56:12;;;;;;;53.28;40.08;;;;;;;7.42;64.07;100685.78;5062684;28;20037;-76
2020/12/10 05:58:53;;;;;;;55.55;43.25;;;;;;;7.35;64.10;100675.69;5051817;28;20055;-77
2020/12/10 06:01:35;;;;;;;51.17;34.08;;;;;;;7.44;64.03;100684.56;5063044;28;20075;-77
2020/12/10 06:04:02;;;;;;;53.88;40.58;;;;;;;7.45;63.93;100693.53;5054344;28;20040;-77
2020/12/10 06:06:29;;;;;;;56.00;41.47;;;;;;;7.47;63.96;100692.31;5061436;28;20032;-76
2020/12/10 06:09:04;;;;;;;60.60;46.15;;;;;;;7.39;63.97;100686.97;5058127;28;20067;-77
2020/12/10 06:11:31;;;;;;;57.35;44.60;;;;;;;7.27;64.09;100691.94;5062349;28;20032;-76
2020/12/10 06:14:19;;;;;;;60.90;45.15;;;;;;;7.20;64.21;100692.84;5059666;28;20394;-77
2020/12/10 06:16:48;;;;;;;55.97;42.85;;;;;;;7.04;64.69;100688.38;5061380;28;20032;-76
2020/12/10 06:19:14;;;;;;;55.80;38.65;;;;;;;6.94;64.86;100675.91;5062269;28;20029;-77
2020/12/10 06:21:46;;;;;;;55.10;39.00;;;;;;;7.02;64.45;100685.84;5065202;28;20033;-76
2020/12/10 06:24:26;;;;;;;50.03;31.10;;;;;;;7.02;64.34;100682.31;5041599;28;20641;-76
2020/12/10 06:26:56;;;;;;;35.78;26.58;;;;;;;6.97;64.65;100690.94;5061073;28;20035;-75
2020/12/10 06:29:27;;;;;;;47.38;32.35;;;;;;;7.03;64.34;100692.94;5059331;28;20036;-76
2020/12/10 06:32:03;;;;;;;47.55;32.20;;;;;;;7.01;64.20;100694.13;5056176;28;20037;-76
2020/12/10 06:35:04;;;;;;;48.92;39.60;;;;;;;6.94;64.37;100700.25;5062964;28;20483;-78
2020/12/10 06:37:30;;;;;;;50.37;37.83;;;;;;;6.95;64.13;100695.66;5050846;28;20502;-78
2020/12/10 06:40:03;;;;;;;43.90;33.30;;;;;;;6.95;64.09;100698.38;5053657;28;20516;-76
2020/12/10 06:42:46;;;;;;;46.55;36.53;;;;;;;6.89;64.08;100691.84;5061683;28;20088;-77
2020/12/10 06:45:37;;;;;;;46.80;35.05;;;;;;;6.79;64.08;100691.19;5058881;28;20065;-76
2020/12/10 06:48:10;;;;;;;43.05;30.90;;;;;;;6.57;64.70;100704.44;5063921;28;20549;-78
2020/12/10 06:50:40;;;;;;;44.42;34.75;;;;;;;6.62;64.24;100702.06;5059059;28;20071;-75
2020/12/10 06:53:21;;;;;;;45.90;34.60;;;;;;;6.50;64.36;100708.00;5061138;28;20020;-78
2020/12/10 06:55:59;;;;;;;40.75;31.40;;;;;;;6.36;64.50;100709.56;5060592;28;20033;-77
2020/12/10 06:58:46;;;;;;;43.35;35.17;;;;;;;6.19;64.88;100717.69;5063509;28;20032;-77
2020/12/10 07:01:23;;;;;;;44.10;37.08;;;;;;;6.21;64.63;100707.56;5056299;28;20028;-77
2020/12/10 07:03:51;;;;;;;43.50;35.42;;;;;;;6.11;64.88;100714.16;5059041;28;20139;-78
2020/12/10 07:06:21;;;;;;;45.15;37.33;;;;;;;6.12;64.60;100719.41;5059512;28;20041;-77
2020/12/10 07:09:17;;;;;;;36.30;30.03;;;;;;;6.13;64.58;100717.53;5061224;28;20047;-77
2020/12/10 07:11:45;;;;;;;44.35;39.67;;;;;;;6.08;64.52;100718.88;5059775;28;20036;-77
2020/12/10 07:14:30;;;;;;;44.80;38.58;;;;;;;6.12;64.33;100705.91;5057226;28;20036;-77
2020/12/10 07:16:56;;;;;;;40.45;34.47;;;;;;;6.20;63.57;100710.44;5057600;28;20158;-76
2020/12/10 07:19:22;;;;;;;36.75;29.08;;;;;;;6.15;63.84;100710.09;5063026;28;20024;-78
2020/12/10 07:21:49;;;;;;;40.55;36.20;;;;;;;6.11;63.89;100715.00;5063658;28;20087;-75
2020/12/10 07:24:14;;;;;;;38.30;30.52;;;;;;;5.94;64.57;100700.63;5062069;28;20028;-78
2020/12/10 07:26:41;;;;;;;36.67;31.80;;;;;;;6.17;63.65;100705.38;5058162;28;20041;-78
2020/12/10 07:29:07;;;;;;;37.38;31.23;;;;;;;6.08;63.97;100709.94;5063584;28;20032;-78
2020/12/10 07:31:32;;;;;;;36.22;32.35;;;;;;;6.08;63.83;100708.06;5053689;28;20144;-78
2020/12/10 07:33:58;;;;;;;41.15;35.55;;;;;;;6.08;63.83;100709.94;5056340;28;20035;-77
2020/12/10 07:36:24;;;;;;;41.97;36.67;;;;;;;6.11;63.50;100715.00;5059638;28;20048;-75
2020/12/10 07:38:50;;;;;;;42.63;32.25;;;;;;;6.03;63.55;100710.44;5044733;28;20040;-75
2020/12/10 07:41:16;;;;;;;42.17;35.33;;;;;;;6.05;63.83;100711.13;5035284;28;20028;-76
2020/12/10 07:43:52;;;;;;;41.58;34.63;;;;;;;5.94;63.96;100718.69;5040652;28;20041;-76
2020/12/10 07:46:19;;;;;;;36.10;30.88;;;;;;;6.00;63.68;100718.88;5044974;28;20036;-78
2020/12/10 07:48:49;;;;;;;39.63;32.92;;;;;;;6.05;63.28;100716.50;5057781;28;20039;-75
2020/12/10 07:51:21;;;;;;;40.50;33.45;;;;;;;6.06;63.46;100718.22;5062406;28;20123;-76
2020/12/10 07:53:48;;;;;;;35.67;30.58;;;;;;;6.08;63.47;100716.19;5033364;28;20491;-75
2020/12/10 07:56:21;;;;;;;42.50;36.17;;;;;;;6.05;63.52;100713.81;5062432;28;20086;-76
2020/12/10 07:59:02;;;;;;;39.90;31.85;;;;;;;6.02;63.81;100719.56;5058092;28;20023;-78
2020/12/10 08:01:40;;;;;;;45.08;34.63;;;;;;;6.19;64.10;100711.44;5067267;28;20556;-75
2020/12/10 08:04:18;;;;;;;50.38;35.55;;;;;;;6.28;64.08;100724.75;5058982;28;20043;-75
2020/12/10 08:06:45;;;;;;;46.58;39.22;;;;;;;6.24;64.11;100728.84;5057226;28;20051;-75
2020/12/10 08:09:11;;;;;;;43.83;31.92;;;;;;;6.32;63.81;100727.13;5057768;28;20478;-78
2020/12/10 08:11:48;;;;;;;40.30;29.33;;;;;;;6.46;63.39;100726.44;5055546;28;20036;-75
2020/12/10 08:14:13;;;;;;;46.20;32.53;;;;;;;6.38;63.43;100731.84;5059305;28;20429;-75
2020/12/10 08:16:42;;;;;;;40.22;29.33;;;;;;;6.43;62.73;100733.00;5062933;28;20033;-75
2020/12/10 08:19:32;;;;;;;40.50;32.25;;;;;;;6.44;62.96;100737.41;5059607;28;20441;-75
2020/12/10 08:21:58;;;;;;;44.20;34.83;;;;;;;6.46;63.35;100734.53;5059602;28;20094;-75
2020/12/10 08:24:44;;;;;;;44.28;39.40;;;;;;;6.48;63.15;100726.25;5061868;28;20028;-78
2020/12/10 08:27:14;;;;;;;52.95;38.35;;;;;;;6.49;63.22;100728.78;5049307;28;20040;-78
2020/12/10 08:29:58;;;;;;;43.50;32.25;;;;;;;6.58;63.18;100730.44;5064933;28;20621;-77
2020/12/10 08:32:23;;;;;;;39.17;33.35;;;;;;;6.62;62.44;100734.47;5047763;28;20036;-76
2020/12/10 08:35:02;;;;;;;42.05;33.63;;;;;;;6.90;62.31;100725.94;5063684;28;20471;-75
2020/12/10 08:37:36;;;;;;;43.95;34.15;;;;;;;7.48;61.10;100737.31;5064538;28;20139;-78
2020/12/10 08:40:02;;;;;;;44.00;34.95;;;;;;;8.05;59.35;100740.63;5063694;28;20107;-76
2020/12/10 08:42:28;;;;;;;39.95;30.90;;;;;;;8.30;58.52;100732.28;5028925;28;20095;-74
2020/12/10 08:44:54;;;;;;;49.47;37.72;;;;;;;7.99;58.49;100734.06;5044871;28;20040;-75
2020/12/10 08:47:27;;;;;;;40.90;33.47;;;;;;;7.94;58.18;100732.91;5043849;28;20094;-77
2020/12/10 08:50:23;;;;;;;44.97;33.05;;;;;;;7.58;59.11;100738.94;5065772;28;20122;-77
2020/12/10 08:53:06;;;;;;;37.58;32.80;;;;;;;7.56;59.54;100732.88;5062680;28;20028;-77
2020/12/10 08:55:45;;;;;;;36.88;31.85;;;;;;;7.35;59.66;100735.19;5048068;28;20036;-78
2020/12/10 08:58:20;;;;;;;40.28;33.72;;;;;;;7.12;59.93;100732.44;5065808;28;20534;-75
2020/12/10 09:00:47;;;;;;;45.78;38.70;;;;;;;6.72;61.45;100742.41;5056974;28;20059;-77
2020/12/10 09:03:18;;;;;;;42.88;37.17;;;;;;;6.87;61.46;100744.38;5045190;28;20028;-76
2020/12/10 09:05:44;;;;;;;46.53;41.03;;;;;;;6.85;61.46;100744.56;5048410;28;20494;-77
2020/12/10 09:08:10;;;;;;;41.55;34.20;;;;;;;6.91;61.65;100737.63;5062033;28;20067;-77
2020/12/10 09:10:36;;;;;;;43.75;35.40;;;;;;;6.76;62.66;100740.19;5064503;28;20025;-78
2020/12/10 09:13:02;;;;;;;44.88;36.85;;;;;;;6.94;61.64;100748.06;5064115;28;20028;-77
2020/12/10 09:15:30;;;;;;;52.42;45.75;;;;;;;6.97;62.36;100745.03;5047804;28;20044;-77
2020/12/10 09:17:56;;;;;;;51.47;43.72;;;;;;;6.91;62.24;100749.25;5046923;28;20045;-77
2020/12/10 09:20:22;;;;;;;42.33;37.80;;;;;;;6.85;62.21;100749.94;5062512;28;20148;-77
2020/12/10 09:22:48;;;;;;;44.65;35.13;;;;;;;6.85;62.82;100744.56;5061416;28;20552;-77
2020/12/10 09:25:14;;;;;;;42.08;31.33;;;;;;;6.79;62.61;100740.69;5047552;28;20032;-77
2020/12/10 09:27:39;;;;;;;40.20;30.52;;;;;;;6.77;62.35;100737.31;5065359;28;20024;-76
2020/12/10 09:30:07;;;;;;;48.25;37.45;;;;;;;7.07;63.08;100736.69;5063336;28;20025;-77
2020/12/10 09:32:34;;;;;;;42.92;35.03;;;;;;;7.14;61.78;100735.81;5065207;28;20076;-77
2020/12/10 09:35:06;;;;;;;39.38;32.10;;;;;;;7.24;61.67;100738.28;5057643;28;20478;-77
2020/12/10 09:37:33;;;;;;;42.58;30.88;;;;;;;7.34;61.69;100738.09;5045585;28;20394;-77
2020/12/10 09:39:58;;;;;;;38.28;30.42;;;;;;;7.24;61.32;100743.69;5041723;28;20557;-77
2020/12/10 09:42:24;;;;;;;37.65;28.83;;;;;;;7.10;61.69;100742.56;5047125;28;20041;-77
2020/12/10 09:44:49;;;;;;;39.80;29.88;;;;;;;7.27;61.58;100745.22;5012948;28;20507;-77
2020/12/10 09:47:15;;;;;;;41.65;37.20;;;;;;;7.28;61.59;100744.22;5013838;28;20041;-76
2020/12/10 09:49:40;;;;;;;40.88;32.25;;;;;;;7.11;61.98;100741.56;5025016;28;20107;-76
2020/12/10 09:52:07;;;;;;;42.92;33.00;;;;;;;7.02;62.24;100745.34;5044957;28;20029;-76
2020/12/10 09:59:28;;;;;;;36.92;32.97;;;;;;;7.46;61.31;100735.78;5039589;28;20116;-76
2020/12/10 10:01:54;;;;;;;36.80;30.23;;;;;;;7.45;61.42;100734.13;5041404;28;20111;-77
2020/12/10 10:04:19;;;;;;;36.00;29.60;;;;;;;7.43;61.17;100739.72;5043844;28;20036;-77
2020/12/10 10:06:46;;;;;;;36.13;29.60;;;;;;;7.31;61.11;100731.16;5037548;28;20047;-78
2020/12/10 10:09:12;;;;;;;38.47;32.33;;;;;;;7.13;61.61;100727.88;5046033;28;20037;-77
2020/12/10 10:11:37;;;;;;;40.53;33.55;;;;;;;7.35;61.38;100723.50;5044701;28;20028;-76
2020/12/10 10:14:03;;;;;;;34.88;27.90;;;;;;;7.33;61.37;100730.97;5023753;28;20514;-76
2020/12/10 10:16:31;;;;;;;42.00;29.33;;;;;;;7.43;60.99;100726.19;5026268;28;20061;-76
2020/12/10 10:18:58;;;;;;;38.70;29.33;;;;;;;7.34;60.86;100721.84;5045050;28;20111;-77
2020/12/10 10:21:26;;;;;;;34.58;26.95;;;;;;;7.43;60.61;100718.06;5043702;28;20107;-77
2020/12/10 10:23:52;;;;;;;36.90;29.30;;;;;;;7.33;60.88;100725.56;5041180;28;20044;-76
2020/12/10 10:26:21;;;;;;;37.95;30.30;;;;;;;7.62;60.50;100724.03;5040860;28;20111;-77
2020/12/10 10:28:52;;;;;;;37.45;30.65;;;;;;;7.65;60.81;100729.09;5024274;28;20029;-77
2020/12/10 10:31:38;;;;;;;37.33;30.88;;;;;;;7.74;60.55;100728.00;5040635;28;20136;-77
2020/12/10 10:34:03;;;;;;;44.80;37.50;;;;;;;7.76;60.50;100731.38;5037493;28;20118;-77
2020/12/10 10:36:30;;;;;;;44.80;37.92;;;;;;;7.79;60.39;100741.84;5041901;28;20044;-77
2020/12/10 10:38:55;;;;;;;40.50;33.22;;;;;;;7.77;60.11;100737.63;5044241;28;20153;-77
2020/12/10 10:41:21;;;;;;;36.40;28.80;;;;;;;7.82;60.09;100744.19;5043310;28;20040;-77
2020/12/10 10:43:49;;;;;;;36.60;32.45;;;;;;;7.75;60.02;100743.22;5043323;28;20497;-77
2020/12/10 10:46:19;;;;;;;38.35;29.05;;;;;;;7.69;60.06;100738.50;5045343;28;20337;-77
2020/12/10 10:48:46;;;;;;;33.25;28.05;;;;;;;7.66;60.14;100736.16;5061701;28;20591;-77
2020/12/10 10:51:11;;;;;;;37.28;31.92;;;;;;;7.48;60.53;100728.38;5060932;28;20029;-77
2020/12/10 10:53:39;;;;;;;42.03;37.53;;;;;;;7.63;60.29;100731.13;5058308;28;20036;-78
2020/12/10 10:56:25;;;;;;;41.50;31.83;;;;;;;7.60;60.43;100728.78;5064344;28;20048;-76
2020/12/10 10:58:52;;;;;;;33.35;27.55;;;;;;;7.52;60.58;100719.72;5060842;28;20032;-77
2020/12/10 11:01:28;;;;;;;37.25;31.00;;;;;;;7.52;60.94;100717.00;5044865;28;20058;-78
2020/12/10 11:03:54;;;;;;;33.55;26.70;;;;;;;7.68;60.51;100724.16;5055909;28;20597;-77
2020/12/10 11:06:20;;;;;;;44.67;35.78;;;;;;;7.60;60.43;100712.53;5061617;28;20059;-77
2020/12/10 11:08:49;;;;;;;50.30;45.25;;;;;;;7.68;60.48;100709.78;5063416;28;20037;-78
2020/12/10 11:11:22;;;;;;;38.65;33.40;;;;;;;7.57;61.24;100707.47;5042230;28;20033;-77
2020/12/10 11:13:49;;;;;;;36.83;25.17;;;;;;;7.50;60.77;100705.50;5063536;28;20032;-77
2020/12/10 11:16:34;;;;;;;37.67;29.35;;;;;;;7.54;60.87;100706.00;5048972;28;20047;-77
2020/12/10 11:19:00;;;;;;;38.05;30.35;;;;;;;7.77;60.65;100700.59;5029109;28;20055;-77
2020/12/10 11:21:27;;;;;;;33.55;26.45;;;;;;;7.75;60.42;100702.59;5040207;28;20394;-78
2020/12/10 11:23:53;;;;;;;41.35;34.88;;;;;;;7.62;60.46;100707.81;5062258;28;20114;-77
2020/12/10 11:26:19;;;;;;;42.05;36.10;;;;;;;7.93;59.96;100702.31;5044761;28;20498;-78
2020/12/10 11:29:06;;;;;;;42.67;36.20;;;;;;;8.13;60.06;100705.34;5012418;28;20422;-76